Aérodrome :
LOGIN :

S'inscrire | Disclaimer

   EN    FR    IT 

 










Légende :    VFR   VFR Marginal   IFR   IFR Intensif   IFR Très Intensif
Visi : 
Plafond : 
>= 8 km
>= 3000ft
5 à 8 km
1000 à 3000 ft
1500m à 5 km
500 à 1000 ft
800 à 1500m
200 à 500 ft
< 800m
< 200 ft
Symboles :   Orages  Brouillard  Fortes neiges  Fortes précipitations  Vent > 20 kt
SIGMETs :   Divers  Orages  Givrage  Turbulence  Onde Orograph.  Cendres Volcan.







- Altitude de l'aérodrome : 138 ft
- Code IATA : BIO


LEBB - Bilbao

DERNIER METAR :
  • 210400Z 31007KT 270V340 9999 -RA BKN023 13/12 Q1026 NOSIG

METARs EXPIRÉS :
  • 210330Z AUTO 31009KT 6000 BKN023/// BKN029/// 13/12 Q1026
  • 210300Z AUTO 32009KT 5000 BR FEW022/// BKN034/// 14/12 Q1026
  • 210230Z AUTO 31012KT 6000 FEW019/// SCT025/// BKN032/// 13/12 Q1026
  • 210200Z AUTO 32011KT 3900 -RA FEW015/// BKN021/// BKN027/// 13/12 Q1026
  • 210130Z AUTO 32009KT 290V350 3800 -RA FEW014/// BKN022/// BKN028/// 13/12 Q1026

TAF TAF LEBB
Valide du 21 à 00h jusqu'au 22 à 00h UTC


202300Z 2100/2124 27009KT 9999 SCT020 BKN040 TX17/2115Z TN09/2104Z
TEMPO 2100/2109 28015G28KT
PROB40
TEMPO 2100/2110 3000 -RADZ BKN010
Pas de NOTAMs connus pour ce terrain.



MET'MAP, la Météo Aéronautique d'un coup d'oeil ! - Copyright ORBIFLY Décembre 2007 - Disclaimer

ORBIFLY MET'MAP TEAM :

Programmation & Développement : Alexandra Zaïnal
Conception & Développement : Baudouin d'Aumeries
Co-Programmation & Développement : Marc-Olivier Méhu
Soutien technique & logistique : Manuel Goepfert

Contact : metmap@orbifly.com




SOURCES & CREDITS :

   NOAA